createdAt,value
2022-09-02T00:01:38.334Z,99975.28
2022-09-02T00:04:15.758Z,99981.33
2022-09-02T00:06:50.963Z,99974.61
2022-09-02T00:09:26.238Z,99989.89
2022-09-02T00:11:59.274Z,99995.48
2022-09-02T00:14:36.863Z,99997.92
2022-09-02T00:17:10.110Z,99998.72
2022-09-02T00:19:43.165Z,99991.92
2022-09-02T00:22:16.653Z,99990.52
2022-09-02T00:24:49.753Z,100003.23
2022-09-02T00:27:22.730Z,100000.47
2022-09-02T00:29:55.592Z,100006.98
2022-09-02T00:32:28.886Z,100005.63
2022-09-02T00:35:02.331Z,100009.54
2022-09-02T00:37:35.759Z,100012.13
2022-09-02T00:40:12.086Z,100011.20
2022-09-02T00:42:45.625Z,100016.00
2022-09-02T00:45:19.598Z,100016.87
2022-09-02T00:47:53.334Z,100018.59
2022-09-02T00:50:31.096Z,100018.46
2022-09-02T00:53:11.237Z,100024.58
2022-09-02T00:55:48.105Z,100023.13
2022-09-02T00:58:26.099Z,100029.55
2022-09-02T01:01:00.194Z,100031.66
2022-09-02T01:03:34.747Z,100025.05
2022-09-02T01:06:08.139Z,100027.08
2022-09-02T01:08:41.175Z,100031.33
2022-09-02T01:11:17.644Z,100040.47
2022-09-02T01:13:51.811Z,100040.37
2022-09-02T01:16:31.928Z,100042.53
2022-09-02T01:19:10.354Z,100046.92
2022-09-02T01:21:54.831Z,100049.60
2022-09-02T01:24:31.509Z,100062.44
2022-09-02T01:27:04.628Z,100060.73
2022-09-02T01:29:38.201Z,100063.06
2022-09-02T01:32:11.194Z,100065.70
2022-09-02T01:34:44.316Z,100060.38
2022-09-02T01:37:17.452Z,100063.41
2022-09-02T01:39:52.584Z,100068.59
2022-09-02T01:42:26.804Z,100061.47
2022-09-02T01:45:01.215Z,100064.45
2022-09-02T01:47:35.311Z,100067.79
2022-09-02T01:50:10.177Z,100077.27
2022-09-02T01:52:43.568Z,100070.93
2022-09-02T01:55:17.438Z,100081.42
2022-09-02T01:57:50.352Z,100080.97
2022-09-02T02:00:25.311Z,100088.78
2022-09-02T02:02:58.475Z,100090.89
2022-09-02T02:05:33.732Z,100083.27
2022-09-02T02:08:07.835Z,100087.51
2022-09-02T02:10:43.978Z,100082.97
2022-09-02T02:13:17.891Z,100085.61
2022-09-02T02:15:51.431Z,100090.44
2022-09-02T02:18:24.917Z,100097.90
2022-09-02T02:20:58.960Z,100105.98
2022-09-02T02:23:31.975Z,100106.51
2022-09-02T02:26:06.062Z,100114.38
2022-09-02T02:28:39.459Z,100114.38
2022-09-02T02:31:12.497Z,100118.70
2022-09-02T02:33:46.969Z,100123.05
2022-09-02T02:36:20.931Z,100123.59
2022-09-02T02:38:54.301Z,100130.77
2022-09-02T02:41:27.298Z,100127.16
2022-09-02T02:44:00.610Z,100135.28
2022-09-02T02:46:35.910Z,100133.86
2022-09-02T02:49:09.658Z,100132.33
2022-09-02T02:51:43.701Z,100126.34
2022-09-02T02:54:16.810Z,100132.59
2022-09-02T02:56:49.879Z,100150.14
2022-09-02T02:59:22.744Z,100153.64
2022-09-02T03:01:56.667Z,100153.58
2022-09-02T03:04:30.250Z,100158.41
2022-09-02T03:07:03.671Z,100151.41
2022-09-02T03:09:38.065Z,100155.06
2022-09-02T03:12:11.692Z,100160.89
2022-09-02T03:14:45.382Z,100162.70
2022-09-02T03:17:20.037Z,100163.31
2022-09-02T03:19:54.488Z,100171.75
2022-09-02T03:22:28.859Z,100178.34
2022-09-02T03:25:02.349Z,100184.69
2022-09-02T03:27:36.205Z,100182.09
2022-09-02T03:30:13.416Z,100188.62
2022-09-02T03:32:47.295Z,100191.80
2022-09-02T03:35:22.606Z,100193.22
2022-09-02T03:37:57.417Z,100192.96
2022-09-02T03:40:30.737Z,100204.23
2022-09-02T03:43:04.226Z,100200.88
2022-09-02T03:45:39.046Z,100202.36
2022-09-02T03:48:14.554Z,100213.72
2022-09-02T03:50:48.667Z,100214.81
2022-09-02T03:53:24.060Z,100224.95
2022-09-02T03:55:59.378Z,100225.51
2022-09-02T03:58:33.161Z,100224.68
2022-09-02T04:01:07.961Z,100225.51
2022-09-02T04:03:41.264Z,100230.61
2022-09-02T04:06:16.631Z,100233.03
2022-09-02T04:08:51.820Z,100234.02
2022-09-02T04:11:26.135Z,100234.14
2022-09-02T04:14:01.299Z,100236.05
2022-09-02T04:16:36.966Z,100234.47
2022-09-02T04:19:11.966Z,100236.94
2022-09-02T04:21:44.946Z,100238.36
2022-09-02T04:24:18.251Z,100242.05
2022-09-02T04:26:53.227Z,100243.58
2022-09-02T04:29:26.705Z,100240.33
2022-09-02T04:32:01.197Z,100240.88
2022-09-02T04:34:34.699Z,100242.25
2022-09-02T04:37:08.966Z,100245.43
2022-09-02T04:39:43.298Z,100245.59
2022-09-02T04:42:16.529Z,100246.68
2022-09-02T04:44:49.586Z,100257.05
2022-09-02T04:47:23.814Z,100261.24
2022-09-02T04:49:56.830Z,100259.59
2022-09-02T04:52:30.431Z,100261.02
2022-09-02T04:55:07.316Z,100268.53
2022-09-02T04:57:43.290Z,100264.23
2022-09-02T05:00:19.335Z,100270.94
2022-09-02T05:02:56.046Z,100269.18
2022-09-02T05:05:31.079Z,100268.02
2022-09-02T05:08:05.660Z,100270.42
2022-09-02T05:10:39.050Z,100270.37
2022-09-02T05:13:12.937Z,100271.50
2022-09-02T05:15:47.605Z,100268.19
2022-09-02T05:18:21.820Z,100272.23
2022-09-02T05:20:55.394Z,100273.75
2022-09-02T05:23:28.637Z,100275.75
2022-09-02T05:26:03.655Z,100277.34
2022-09-02T05:28:38.122Z,100283.74
2022-09-02T05:31:15.253Z,100283.11
2022-09-02T05:33:49.294Z,100296.27
2022-09-02T05:36:24.740Z,100289.58
2022-09-02T05:39:00.782Z,100302.19
2022-09-02T05:41:35.354Z,100302.50
2022-09-02T05:44:09.695Z,100311.56
2022-09-02T05:46:48.780Z,100308.17
2022-09-02T05:49:24.400Z,100314.55
2022-09-02T05:52:02.511Z,100317.32
2022-09-02T05:54:40.815Z,100318.13
2022-09-02T05:57:18.381Z,100314.08
2022-09-02T06:00:08.889Z,100315.83
2022-09-02T06:02:47.366Z,100318.60
2022-09-02T06:05:22.748Z,100325.37
2022-09-02T06:07:57.405Z,100321.14
2022-09-02T06:10:30.593Z,100323.68
2022-09-02T06:13:05.502Z,100325.37
2022-09-02T06:15:44.657Z,100322.13
2022-09-02T06:18:19.976Z,100316.62
2022-09-02T06:20:54.770Z,100315.09
2022-09-02T06:23:28.437Z,100312.74
2022-09-02T06:26:03.062Z,100308.92
2022-09-02T06:28:36.533Z,100315.69
2022-09-02T06:31:16.853Z,100313.22
2022-09-02T06:33:52.316Z,100305.02
2022-09-02T06:36:28.562Z,100310.94
2022-09-02T06:39:03.296Z,100302.69
2022-09-02T06:41:39.619Z,100311.65
2022-09-02T06:44:16.547Z,100312.33
2022-09-02T06:46:58.152Z,100310.73
2022-09-02T06:49:32.386Z,100313.48
2022-09-02T06:52:06.380Z,100314.48
2022-09-02T06:54:41.572Z,100307.05
2022-09-02T06:57:19.278Z,100307.99
2022-09-02T06:59:52.449Z,100323.17
2022-09-02T07:02:27.001Z,100319.70
2022-09-02T07:05:13.819Z,100324.63
2022-09-02T07:07:49.548Z,100325.59
2022-09-02T07:10:23.795Z,100323.48
2022-09-02T07:12:57.806Z,100324.45
2022-09-02T07:15:32.685Z,100324.11
2022-09-02T07:18:06.422Z,100327.70
2022-09-02T07:20:41.885Z,100330.89
2022-09-02T07:23:16.178Z,100319.92
2022-09-02T07:25:49.447Z,100317.36
2022-09-02T07:28:24.772Z,100324.95
2022-09-02T07:30:59.908Z,100319.74
2022-09-02T07:33:32.610Z,100319.80
2022-09-02T07:36:10.917Z,100321.59
2022-09-02T07:38:43.429Z,100324.28
2022-09-02T07:41:16.822Z,100312.40
2022-09-02T07:43:51.792Z,100314.70
2022-09-02T07:46:26.131Z,100305.88
2022-09-02T07:49:02.310Z,100308.14
2022-09-02T07:51:37.760Z,100308.14
2022-09-02T07:54:13.513Z,100316.60
2022-09-02T07:56:46.953Z,100306.48
2022-09-02T07:59:21.937Z,100314.08
2022-09-02T08:01:56.231Z,100312.81
2022-09-02T08:04:29.343Z,100312.39
2022-09-02T08:07:03.766Z,100310.70
2022-09-02T08:09:37.145Z,100309.39
2022-09-02T08:12:10.814Z,100307.23
2022-09-02T08:14:44.310Z,100307.75
2022-09-02T08:17:17.858Z,100314.02
2022-09-02T08:19:51.098Z,100322.94
2022-09-02T08:22:24.369Z,100313.25
2022-09-02T08:24:57.420Z,100321.71
2022-09-02T08:27:30.554Z,100319.97
2022-09-02T08:30:03.624Z,100317.31
2022-09-02T08:32:36.861Z,100317.36
2022-09-02T08:35:11.829Z,100319.62
2022-09-02T08:37:45.232Z,100321.92
2022-09-02T08:40:22.992Z,100314.91
2022-09-02T08:42:58.041Z,100315.77
2022-09-02T08:45:39.230Z,100322.81
2022-09-02T08:48:27.182Z,100317.55
2022-09-02T08:51:04.874Z,100316.73
2022-09-02T08:53:53.910Z,100311.41
2022-09-02T08:56:29.997Z,100314.98
2022-09-02T08:59:03.611Z,100321.65
2022-09-02T09:02:00.873Z,100322.13
2022-09-02T09:05:01.083Z,100328.02
2022-09-02T09:07:41.646Z,100317.89
2022-09-02T09:10:19.602Z,100331.73
2022-09-02T09:13:14.761Z,100323.33
2022-09-02T09:16:00.993Z,100326.01
2022-09-02T09:18:44.244Z,100320.69
2022-09-02T09:21:18.526Z,100325.19
2022-09-02T09:23:50.625Z,100325.13
2022-09-02T09:26:28.084Z,100315.74
2022-09-02T09:29:01.849Z,100327.66
2022-09-02T09:31:36.051Z,100317.95
2022-09-02T09:34:15.904Z,100315.83
2022-09-02T09:36:54.580Z,100318.13
2022-09-02T09:39:33.116Z,100315.59
2022-09-02T09:42:10.822Z,100308.55
2022-09-02T09:44:49.446Z,100301.97
2022-09-02T09:47:26.259Z,100314.00
2022-09-02T09:50:16.313Z,100311.36
2022-09-02T09:52:49.565Z,100311.81
2022-09-02T09:55:25.533Z,100319.41
2022-09-02T09:58:03.301Z,100315.93
2022-09-02T10:00:36.300Z,100313.26
2022-09-02T10:03:10.169Z,100317.69
2022-09-02T10:05:43.279Z,100318.58
2022-09-02T10:08:23.310Z,100314.61
2022-09-02T10:11:05.897Z,100315.07
2022-09-02T10:13:40.546Z,100318.61
2022-09-02T10:16:57.324Z,100319.95
2022-09-02T10:19:45.020Z,100327.12
2022-09-02T10:22:58.846Z,100325.91
2022-09-02T10:25:41.448Z,100327.73
2022-09-02T10:28:49.513Z,100326.91
2022-09-02T10:31:34.655Z,100322.48
2022-09-02T10:34:29.140Z,100326.47
2022-09-02T10:37:09.888Z,100333.61
2022-09-02T10:40:19.813Z,100325.66
2022-09-02T10:43:29.599Z,100322.13
2022-09-02T10:46:03.592Z,100320.83
2022-09-02T10:49:11.084Z,100319.52
2022-09-02T10:54:46.595Z,100316.52
2022-09-02T10:57:26.808Z,100316.05
2022-09-02T11:00:10.458Z,100318.68
2022-09-02T11:03:11.218Z,100313.36
2022-09-02T11:05:52.149Z,100314.69
2022-09-02T11:08:49.205Z,100309.81
2022-09-02T11:11:34.463Z,100313.38
2022-09-02T11:14:48.988Z,100309.39
2022-09-02T11:17:36.158Z,100307.22
2022-09-02T11:20:38.973Z,100301.95
2022-09-02T11:23:45.601Z,100305.53
2022-09-02T11:26:38.662Z,100301.12
2022-09-02T11:29:19.657Z,100300.69
2022-09-02T11:32:05.640Z,100299.78
2022-09-02T11:34:46.058Z,100288.26
2022-09-02T11:37:35.533Z,100295.84
2022-09-02T11:41:32.576Z,100294.94
2022-09-02T11:44:06.753Z,100295.34
2022-09-02T11:47:02.875Z,100291.80
2022-09-02T11:50:12.709Z,100286.94
2022-09-02T11:53:23.459Z,100294.97
2022-09-02T11:56:06.979Z,100293.66
2022-09-02T11:58:46.366Z,100294.56
2022-09-02T12:01:43.648Z,100290.59
2022-09-02T12:04:58.804Z,100290.61
2022-09-02T12:07:13.304Z,100285.69
2022-09-02T12:09:57.663Z,100289.27
2022-09-02T12:12:47.799Z,100286.61
2022-09-02T12:15:21.718Z,100280.38
2022-09-02T12:18:00.746Z,100285.72
2022-09-02T12:20:45.971Z,100289.74
2022-09-02T12:23:58.833Z,100285.76
2022-09-02T12:26:42.241Z,100288.90
2022-09-02T12:29:25.559Z,100280.05
2022-09-02T12:31:59.376Z,100279.16
2022-09-02T12:34:35.028Z,100279.16
2022-09-02T12:37:08.156Z,100273.83
2022-09-02T12:39:44.331Z,100275.66
2022-09-02T12:42:21.885Z,100269.45
2022-09-02T12:45:14.711Z,100273.81
2022-09-02T12:48:14.209Z,100264.48
2022-09-02T12:50:59.267Z,100263.14
2022-09-02T12:53:45.019Z,100266.28
2022-09-02T12:56:25.773Z,100270.34
2022-09-02T12:59:02.722Z,100261.91
2022-09-02T13:02:12.391Z,100261.03
2022-09-02T13:05:05.206Z,100261.89
2022-09-02T13:08:17.566Z,100270.80
2022-09-02T13:10:59.416Z,100265.01
2022-09-02T13:14:20.799Z,100268.13
2022-09-02T13:17:19.122Z,100271.70
2022-09-02T13:20:04.654Z,100273.45
2022-09-02T13:22:57.810Z,100266.80
2022-09-02T13:26:05.467Z,100261.48
2022-09-02T13:29:10.096Z,100267.29
2022-09-02T13:31:44.126Z,100263.33
2022-09-02T13:34:17.450Z,100262.00
2022-09-02T13:36:50.539Z,100263.78
2022-09-02T13:39:29.265Z,100272.67
2022-09-02T13:42:02.549Z,100271.34
2022-09-02T13:44:36.365Z,100265.13
2022-09-02T13:47:20.775Z,100262.48
2022-09-02T13:49:55.569Z,100268.23
2022-09-02T13:53:17.641Z,100269.12
2022-09-02T13:55:04.790Z,100269.09
2022-09-02T13:57:38.619Z,100272.61
2022-09-02T14:00:16.217Z,100268.17
2022-09-02T14:03:05.885Z,100265.09
2022-09-02T14:05:45.341Z,100264.20
2022-09-02T14:08:27.155Z,100268.66
2022-09-02T14:11:05.504Z,100262.86
2022-09-02T14:13:38.711Z,100271.76
2022-09-02T14:16:34.873Z,100269.97
2022-09-02T14:19:25.161Z,100270.44
2022-09-02T14:21:59.616Z,100263.33
2022-09-02T14:24:41.146Z,100271.30
2022-09-02T14:27:20.580Z,100263.30
2022-09-02T14:30:00.873Z,100264.61
2022-09-02T14:32:36.280Z,100265.92
2022-09-02T14:35:19.946Z,100267.69
2022-09-02T14:37:57.946Z,100264.52
2022-09-02T14:40:39.520Z,100270.72
2022-09-02T14:43:15.734Z,100269.78
2022-09-02T14:45:50.620Z,100270.67
2022-09-02T14:48:27.382Z,100286.64
2022-09-02T14:51:05.784Z,100287.05
2022-09-02T14:53:40.301Z,100292.81
2022-09-02T14:56:13.900Z,100295.90
2022-09-02T14:58:46.935Z,100287.00
2022-09-02T15:01:20.001Z,100283.86
2022-09-02T15:03:53.158Z,100286.04
2022-09-02T15:06:27.278Z,100282.91
2022-09-02T15:09:00.408Z,100279.33
2022-09-02T15:11:34.255Z,100284.61
2022-09-02T15:14:07.910Z,100280.98
2022-09-02T15:16:42.148Z,100276.54
2022-09-02T15:19:15.254Z,100286.69
2022-09-02T15:21:48.278Z,100283.98
2022-09-02T15:24:21.330Z,100284.38
2022-09-02T15:26:54.480Z,100281.23
2022-09-02T15:29:29.090Z,100282.08
2022-09-02T15:32:04.263Z,100285.11
2022-09-02T15:34:38.003Z,100285.05
2022-09-02T15:37:13.233Z,100280.09
2022-09-02T15:39:46.911Z,100287.13
2022-09-02T15:42:19.960Z,100286.64
2022-09-02T15:44:53.973Z,100287.01
2022-09-02T15:47:29.824Z,100289.58
2022-09-02T15:50:03.478Z,100289.95
2022-09-02T15:52:37.564Z,100295.20
2022-09-02T15:55:10.852Z,100294.71
2022-09-02T15:57:44.263Z,100303.48
2022-09-02T16:00:17.400Z,100300.33
2022-09-02T16:02:50.567Z,100300.25
2022-09-02T16:05:24.519Z,100304.15
2022-09-02T16:07:57.753Z,100302.28
2022-09-02T16:10:30.652Z,100303.48
2022-09-02T16:13:03.658Z,100303.38
2022-09-02T16:15:38.959Z,100317.01
2022-09-02T16:18:12.801Z,100312.49
2022-09-02T16:20:45.906Z,100320.77
2022-09-02T16:23:19.464Z,100322.92
2022-09-02T16:26:08.956Z,100328.59
2022-09-02T16:28:47.289Z,100333.31
2022-09-02T16:31:22.273Z,100334.97
2022-09-02T16:34:08.649Z,100335.31
2022-09-02T16:36:46.477Z,100338.29
2022-09-02T16:39:20.990Z,100342.61
2022-09-02T16:41:54.953Z,100348.24
2022-09-02T16:44:29.247Z,100354.28
2022-09-02T16:47:02.599Z,100350.22
2022-09-02T16:49:36.293Z,100356.32
2022-09-02T16:52:09.092Z,100354.88
2022-09-02T16:54:43.734Z,100358.28
2022-09-02T16:57:17.624Z,100361.23
2022-09-02T16:59:52.711Z,100363.78
2022-09-02T17:02:25.724Z,100373.41
2022-09-02T17:04:58.884Z,100372.44
2022-09-02T17:07:32.213Z,100379.84
2022-09-02T17:10:06.246Z,100377.50
2022-09-02T17:12:43.016Z,100379.17
2022-09-02T17:15:14.934Z,100383.86
2022-09-02T17:17:47.800Z,100386.81
2022-09-02T17:20:21.145Z,100388.95
2022-09-02T17:22:54.484Z,100395.41
2022-09-02T17:25:27.501Z,100400.15
2022-09-02T17:28:00.685Z,100396.00
2022-09-02T17:30:33.764Z,100396.77
2022-09-02T17:33:06.867Z,100401.11
2022-09-02T17:35:41.570Z,100398.31
2022-09-02T17:38:13.481Z,100403.98
2022-09-02T17:41:04.848Z,100406.52
2022-09-02T17:43:38.923Z,100401.91
2022-09-02T17:46:12.082Z,100407.97
2022-09-02T17:49:05.771Z,100413.59
2022-09-02T17:51:19.714Z,100406.41
2022-09-02T17:53:53.419Z,100401.89
2022-09-02T17:56:58.179Z,100403.61
2022-09-02T18:00:01.565Z,100401.36
2022-09-02T18:02:56.700Z,100398.64
2022-09-02T18:05:55.217Z,100404.77
2022-09-02T18:08:39.679Z,100397.68
2022-09-02T18:11:13.742Z,100396.31
2022-09-02T18:13:57.198Z,100405.09
2022-09-02T18:16:59.321Z,100398.44
2022-09-02T18:20:00.695Z,100404.13
2022-09-02T18:23:03.572Z,100401.89
2022-09-02T18:26:07.323Z,100411.51
2022-09-02T18:28:59.071Z,100410.58
2022-09-02T18:31:52.256Z,100415.83
2022-09-02T18:34:46.162Z,100416.59
2022-09-02T18:37:52.504Z,100413.38
2022-09-02T18:40:32.786Z,100417.75
2022-09-02T18:43:44.485Z,100421.67
2022-09-02T18:46:18.893Z,100422.11
2022-09-02T18:48:54.237Z,100420.27
2022-09-02T18:51:35.905Z,100423.27
2022-09-02T18:54:31.471Z,100422.30
2022-09-02T18:57:08.056Z,100415.12
2022-09-02T18:59:57.891Z,100422.97
2022-09-02T19:03:02.661Z,100420.68
2022-09-02T19:05:36.819Z,100416.23
2022-09-02T19:08:34.474Z,100420.20
2022-09-02T19:11:13.502Z,100428.13
2022-09-02T19:13:55.934Z,100424.60
2022-09-02T19:16:39.887Z,100427.20
2022-09-02T19:19:14.440Z,100422.71
2022-09-02T19:21:59.133Z,100426.19
2022-09-02T19:24:39.679Z,100435.40
2022-09-02T19:27:18.785Z,100426.55
2022-09-02T19:29:57.380Z,100426.50
2022-09-02T19:32:33.304Z,100417.98
2022-09-02T19:35:13.903Z,100415.30
2022-09-02T19:37:51.276Z,100415.17
2022-09-02T19:40:37.085Z,100408.91
2022-09-02T19:43:11.772Z,100416.27
2022-09-02T19:45:48.112Z,100420.53
2022-09-02T19:48:21.457Z,100420.75
2022-09-02T19:50:55.564Z,100423.29
2022-09-02T19:53:31.456Z,100430.59
2022-09-02T19:56:06.586Z,100423.94
2022-09-02T19:58:40.305Z,100415.58
2022-09-02T20:01:13.428Z,100424.38
2022-09-02T20:03:46.762Z,100425.27
2022-09-02T20:06:19.759Z,100425.22
2022-09-02T20:08:53.639Z,100437.10
2022-09-02T20:11:27.030Z,100441.91
2022-09-02T20:13:59.853Z,100438.72
2022-09-02T20:16:33.512Z,100440.33
2022-09-02T20:19:06.519Z,100438.86
2022-09-02T20:21:46.747Z,100436.91
2022-09-02T20:24:29.463Z,100437.56
2022-09-02T20:27:29.483Z,100440.84
2022-09-02T20:30:14.605Z,100433.55
2022-09-02T20:33:03.335Z,100427.63
2022-09-02T20:36:22.403Z,100432.27
2022-09-02T20:39:04.100Z,100426.00
2022-09-02T20:42:06.061Z,100426.69
2022-09-02T20:45:02.705Z,100434.09
2022-09-02T20:47:59.341Z,100425.59
2022-09-02T20:50:52.188Z,100424.27
2022-09-02T20:53:35.435Z,100428.17
2022-09-02T20:56:28.208Z,100428.13
2022-09-02T20:59:29.089Z,100428.02
2022-09-02T21:02:03.323Z,100415.70
2022-09-02T21:04:44.968Z,100412.37
2022-09-02T21:07:32.052Z,100406.77
2022-09-02T21:10:29.696Z,100406.78
2022-09-02T21:13:10.271Z,100400.20
2022-09-02T21:15:50.573Z,100399.05
2022-09-02T21:18:37.249Z,100400.25
2022-09-02T21:21:38.561Z,100395.81
2022-09-02T21:24:25.316Z,100396.30
2022-09-02T21:27:20.192Z,100400.59
2022-09-02T21:30:09.138Z,100402.02
2022-09-02T21:32:48.496Z,100402.89
2022-09-02T21:35:34.898Z,100401.56
2022-09-02T21:38:24.741Z,100409.05
2022-09-02T21:41:33.738Z,100405.09
2022-09-02T21:44:39.831Z,100399.77
2022-09-02T21:47:42.133Z,100402.77
2022-09-02T21:50:29.145Z,100399.94
2022-09-02T21:53:19.438Z,100405.88
2022-09-02T21:56:06.250Z,100407.09
2022-09-02T21:59:06.572Z,100406.86
2022-09-02T22:02:00.470Z,100395.58
2022-09-02T22:04:54.837Z,100396.62
2022-09-02T22:07:54.613Z,100395.62
2022-09-02T22:10:43.716Z,100389.91
2022-09-02T22:13:16.813Z,100391.61
2022-09-02T22:16:30.553Z,100394.64
2022-09-02T22:19:10.053Z,100402.03
2022-09-02T22:22:00.435Z,100398.80
2022-09-02T22:24:35.085Z,100400.48
2022-09-02T22:27:28.821Z,100410.08
2022-09-02T22:30:16.207Z,100416.94
2022-09-02T22:33:01.246Z,100413.19
2022-09-02T22:35:55.505Z,100414.33
2022-09-02T22:38:47.408Z,100419.41
2022-09-02T22:41:43.157Z,100419.17
2022-09-02T22:44:30.473Z,100418.41
2022-09-02T22:47:25.549Z,100412.91
2022-09-02T22:50:18.549Z,100420.50
2022-09-02T22:52:58.154Z,100411.04
2022-09-02T22:55:47.106Z,100409.48
2022-09-02T22:59:15.548Z,100415.05
2022-09-02T23:01:56.251Z,100411.40
2022-09-02T23:04:51.404Z,100412.86
2022-09-02T23:07:26.161Z,100407.47
2022-09-02T23:10:03.576Z,100404.72
2022-09-02T23:12:44.010Z,100407.67
2022-09-02T23:15:30.281Z,100401.03
2022-09-02T23:18:14.290Z,100398.83
2022-09-02T23:21:00.669Z,100406.79
2022-09-02T23:24:00.900Z,100404.65
2022-09-02T23:26:58.483Z,100400.64
2022-09-02T23:29:33.362Z,100401.53
2022-09-02T23:32:28.598Z,100402.41
2022-09-02T23:35:27.116Z,100405.97
2022-09-02T23:38:19.830Z,100405.97
2022-09-02T23:41:11.978Z,100403.27
2022-09-02T23:43:45.585Z,100403.79
2022-09-02T23:46:51.917Z,100404.09
2022-09-02T23:49:38.376Z,100402.66
2022-09-02T23:52:27.434Z,100406.90
2022-09-02T23:55:28.867Z,100412.09
2022-09-02T23:58:33.903Z,100410.29
